sensor_id;sensor_type;location;lat;lon;timestamp;P1;durP1;ratioP1;P2;durP2;ratioP2
19525;SDS011;9907;42.676;26.348;2024-01-30T00:01:50;7.07;;;6.33;;
19525;SDS011;9907;42.676;26.348;2024-01-30T00:04:16;8.67;;;6.63;;
19525;SDS011;9907;42.676;26.348;2024-01-30T00:06:46;7.03;;;5.90;;
19525;SDS011;9907;42.676;26.348;2024-01-30T00:09:11;7.87;;;6.33;;
19525;SDS011;9907;42.676;26.348;2024-01-30T00:11:37;7.63;;;5.73;;
19525;SDS011;9907;42.676;26.348;2024-01-30T00:14:03;7.77;;;6.27;;
19525;SDS011;9907;42.676;26.348;2024-01-30T00:16:29;7.37;;;6.00;;
19525;SDS011;9907;42.676;26.348;2024-01-30T00:18:55;6.70;;;5.63;;
19525;SDS011;9907;42.676;26.348;2024-01-30T00:21:21;6.37;;;5.77;;
19525;SDS011;9907;42.676;26.348;2024-01-30T00:23:47;7.37;;;5.77;;
19525;SDS011;9907;42.676;26.348;2024-01-30T00:26:13;7.47;;;6.07;;
19525;SDS011;9907;42.676;26.348;2024-01-30T00:28:43;6.07;;;5.47;;
19525;SDS011;9907;42.676;26.348;2024-01-30T00:31:08;6.77;;;5.83;;
19525;SDS011;9907;42.676;26.348;2024-01-30T00:33:38;7.17;;;5.63;;
19525;SDS011;9907;42.676;26.348;2024-01-30T00:36:07;8.70;;;5.87;;
19525;SDS011;9907;42.676;26.348;2024-01-30T00:38:47;8.23;;;6.50;;
19525;SDS011;9907;42.676;26.348;2024-01-30T00:41:12;8.00;;;6.10;;
19525;SDS011;9907;42.676;26.348;2024-01-30T00:43:38;9.53;;;6.97;;
19525;SDS011;9907;42.676;26.348;2024-01-30T00:46:03;8.83;;;7.50;;
19525;SDS011;9907;42.676;26.348;2024-01-30T00:48:29;8.67;;;6.83;;
19525;SDS011;9907;42.676;26.348;2024-01-30T00:50:54;7.70;;;6.50;;
19525;SDS011;9907;42.676;26.348;2024-01-30T00:53:20;7.23;;;6.40;;
19525;SDS011;9907;42.676;26.348;2024-01-30T00:55:45;7.43;;;6.50;;
19525;SDS011;9907;42.676;26.348;2024-01-30T00:58:11;7.60;;;6.40;;
19525;SDS011;9907;42.676;26.348;2024-01-30T01:00:37;8.27;;;7.00;;
19525;SDS011;9907;42.676;26.348;2024-01-30T01:03:02;8.70;;;7.00;;
19525;SDS011;9907;42.676;26.348;2024-01-30T01:05:28;8.67;;;6.93;;
19525;SDS011;9907;42.676;26.348;2024-01-30T01:07:53;8.23;;;7.00;;
19525;SDS011;9907;42.676;26.348;2024-01-30T01:10:19;8.13;;;6.87;;
19525;SDS011;9907;42.676;26.348;2024-01-30T01:12:45;9.37;;;6.10;;
19525;SDS011;9907;42.676;26.348;2024-01-30T01:15:11;7.03;;;6.13;;
19525;SDS011;9907;42.676;26.348;2024-01-30T01:17:37;7.47;;;6.10;;
19525;SDS011;9907;42.676;26.348;2024-01-30T01:20:03;7.37;;;6.67;;
19525;SDS011;9907;42.676;26.348;2024-01-30T01:22:33;7.67;;;6.80;;
19525;SDS011;9907;42.676;26.348;2024-01-30T01:25:00;6.30;;;5.53;;
19525;SDS011;9907;42.676;26.348;2024-01-30T01:27:26;6.93;;;5.77;;
19525;SDS011;9907;42.676;26.348;2024-01-30T01:29:52;6.17;;;5.03;;
19525;SDS011;9907;42.676;26.348;2024-01-30T01:32:18;5.67;;;5.13;;
19525;SDS011;9907;42.676;26.348;2024-01-30T01:34:44;6.13;;;5.50;;
19525;SDS011;9907;42.676;26.348;2024-01-30T01:37:10;5.73;;;4.97;;
19525;SDS011;9907;42.676;26.348;2024-01-30T01:39:35;6.27;;;5.60;;
19525;SDS011;9907;42.676;26.348;2024-01-30T01:42:01;8.70;;;6.70;;
19525;SDS011;9907;42.676;26.348;2024-01-30T01:44:26;6.83;;;5.50;;
19525;SDS011;9907;42.676;26.348;2024-01-30T01:46:52;6.57;;;4.93;;
19525;SDS011;9907;42.676;26.348;2024-01-30T01:49:19;5.90;;;4.73;;
19525;SDS011;9907;42.676;26.348;2024-01-30T01:51:45;6.53;;;5.07;;
19525;SDS011;9907;42.676;26.348;2024-01-30T01:54:12;6.87;;;5.70;;
19525;SDS011;9907;42.676;26.348;2024-01-30T01:56:39;7.00;;;5.47;;
19525;SDS011;9907;42.676;26.348;2024-01-30T01:59:05;6.33;;;5.20;;
19525;SDS011;9907;42.676;26.348;2024-01-30T02:01:38;6.07;;;4.90;;
19525;SDS011;9907;42.676;26.348;2024-01-30T02:04:06;6.10;;;5.23;;
19525;SDS011;9907;42.676;26.348;2024-01-30T02:06:33;6.13;;;5.53;;
19525;SDS011;9907;42.676;26.348;2024-01-30T02:08:59;7.77;;;5.50;;
19525;SDS011;9907;42.676;26.348;2024-01-30T02:11:24;6.70;;;5.77;;
19525;SDS011;9907;42.676;26.348;2024-01-30T02:13:50;6.13;;;4.77;;
19525;SDS011;9907;42.676;26.348;2024-01-30T02:16:16;6.90;;;5.47;;
19525;SDS011;9907;42.676;26.348;2024-01-30T02:18:44;7.23;;;5.60;;
19525;SDS011;9907;42.676;26.348;2024-01-30T02:21:16;6.17;;;5.37;;
19525;SDS011;9907;42.676;26.348;2024-01-30T02:23:42;6.50;;;5.47;;
19525;SDS011;9907;42.676;26.348;2024-01-30T02:26:09;6.70;;;5.70;;
19525;SDS011;9907;42.676;26.348;2024-01-30T02:28:35;6.43;;;5.63;;
19525;SDS011;9907;42.676;26.348;2024-01-30T02:31:00;6.73;;;5.80;;
19525;SDS011;9907;42.676;26.348;2024-01-30T02:33:26;8.70;;;5.97;;
19525;SDS011;9907;42.676;26.348;2024-01-30T02:35:51;7.77;;;5.97;;
19525;SDS011;9907;42.676;26.348;2024-01-30T02:38:17;8.27;;;5.90;;
19525;SDS011;9907;42.676;26.348;2024-01-30T02:40:42;9.33;;;6.73;;
19525;SDS011;9907;42.676;26.348;2024-01-30T02:43:07;8.60;;;6.53;;
19525;SDS011;9907;42.676;26.348;2024-01-30T02:45:33;6.67;;;5.20;;
19525;SDS011;9907;42.676;26.348;2024-01-30T02:47:58;7.83;;;5.80;;
19525;SDS011;9907;42.676;26.348;2024-01-30T02:50:24;7.87;;;6.40;;
19525;SDS011;9907;42.676;26.348;2024-01-30T02:52:49;8.30;;;6.40;;
19525;SDS011;9907;42.676;26.348;2024-01-30T02:55:15;7.20;;;5.90;;
19525;SDS011;9907;42.676;26.348;2024-01-30T02:57:43;8.40;;;6.23;;
19525;SDS011;9907;42.676;26.348;2024-01-30T03:00:08;7.00;;;5.57;;
19525;SDS011;9907;42.676;26.348;2024-01-30T03:02:34;7.73;;;6.13;;
19525;SDS011;9907;42.676;26.348;2024-01-30T03:05:00;7.33;;;5.97;;
19525;SDS011;9907;42.676;26.348;2024-01-30T03:07:26;6.00;;;5.40;;
19525;SDS011;9907;42.676;26.348;2024-01-30T03:09:51;9.10;;;6.17;;
19525;SDS011;9907;42.676;26.348;2024-01-30T03:12:17;8.07;;;5.63;;
19525;SDS011;9907;42.676;26.348;2024-01-30T03:14:43;8.20;;;5.87;;
19525;SDS011;9907;42.676;26.348;2024-01-30T03:17:08;7.53;;;6.17;;
19525;SDS011;9907;42.676;26.348;2024-01-30T03:19:33;7.87;;;5.70;;
19525;SDS011;9907;42.676;26.348;2024-01-30T03:21:59;8.53;;;6.20;;
19525;SDS011;9907;42.676;26.348;2024-01-30T03:24:25;7.73;;;5.90;;
19525;SDS011;9907;42.676;26.348;2024-01-30T03:26:50;6.93;;;5.97;;
19525;SDS011;9907;42.676;26.348;2024-01-30T03:29:16;7.90;;;5.77;;
19525;SDS011;9907;42.676;26.348;2024-01-30T03:31:41;6.90;;;5.77;;
19525;SDS011;9907;42.676;26.348;2024-01-30T03:34:07;8.23;;;5.77;;
19525;SDS011;9907;42.676;26.348;2024-01-30T03:36:32;6.37;;;5.33;;
19525;SDS011;9907;42.676;26.348;2024-01-30T03:38:59;8.40;;;5.87;;
19525;SDS011;9907;42.676;26.348;2024-01-30T03:41:25;6.07;;;5.07;;
19525;SDS011;9907;42.676;26.348;2024-01-30T03:43:50;7.50;;;5.23;;
19525;SDS011;9907;42.676;26.348;2024-01-30T03:46:16;8.57;;;5.60;;
19525;SDS011;9907;42.676;26.348;2024-01-30T03:48:41;6.70;;;5.20;;
19525;SDS011;9907;42.676;26.348;2024-01-30T03:51:07;7.43;;;5.57;;
19525;SDS011;9907;42.676;26.348;2024-01-30T03:53:33;6.43;;;5.53;;
19525;SDS011;9907;42.676;26.348;2024-01-30T03:55:58;6.50;;;5.30;;
19525;SDS011;9907;42.676;26.348;2024-01-30T03:58:24;5.80;;;4.73;;
19525;SDS011;9907;42.676;26.348;2024-01-30T04:00:49;6.27;;;4.63;;
19525;SDS011;9907;42.676;26.348;2024-01-30T04:03:15;5.03;;;4.53;;
19525;SDS011;9907;42.676;26.348;2024-01-30T04:05:43;6.13;;;5.40;;
19525;SDS011;9907;42.676;26.348;2024-01-30T04:08:09;5.13;;;4.63;;
19525;SDS011;9907;42.676;26.348;2024-01-30T04:10:34;6.03;;;4.70;;
19525;SDS011;9907;42.676;26.348;2024-01-30T04:13:00;5.20;;;4.70;;
19525;SDS011;9907;42.676;26.348;2024-01-30T04:15:25;5.63;;;5.03;;
19525;SDS011;9907;42.676;26.348;2024-01-30T04:17:52;4.93;;;4.43;;
19525;SDS011;9907;42.676;26.348;2024-01-30T04:20:17;4.63;;;4.23;;
19525;SDS011;9907;42.676;26.348;2024-01-30T04:22:43;9.27;;;6.07;;
19525;SDS011;9907;42.676;26.348;2024-01-30T04:25:09;6.47;;;5.07;;
19525;SDS011;9907;42.676;26.348;2024-01-30T04:27:35;6.03;;;5.33;;
19525;SDS011;9907;42.676;26.348;2024-01-30T04:30:01;6.10;;;5.27;;
19525;SDS011;9907;42.676;26.348;2024-01-30T04:32:27;7.37;;;4.60;;
19525;SDS011;9907;42.676;26.348;2024-01-30T04:34:52;6.07;;;4.93;;
19525;SDS011;9907;42.676;26.348;2024-01-30T04:37:18;6.03;;;5.23;;
19525;SDS011;9907;42.676;26.348;2024-01-30T04:39:44;5.33;;;4.77;;
19525;SDS011;9907;42.676;26.348;2024-01-30T04:42:09;5.30;;;4.47;;
19525;SDS011;9907;42.676;26.348;2024-01-30T04:44:35;5.67;;;4.97;;
19525;SDS011;9907;42.676;26.348;2024-01-30T04:47:00;8.53;;;5.77;;
19525;SDS011;9907;42.676;26.348;2024-01-30T04:49:26;5.87;;;4.17;;
19525;SDS011;9907;42.676;26.348;2024-01-30T04:51:58;7.20;;;5.17;;
19525;SDS011;9907;42.676;26.348;2024-01-30T04:54:23;5.77;;;4.93;;
19525;SDS011;9907;42.676;26.348;2024-01-30T04:56:49;7.43;;;5.60;;
19525;SDS011;9907;42.676;26.348;2024-01-30T04:59:14;5.90;;;5.10;;
19525;SDS011;9907;42.676;26.348;2024-01-30T05:01:40;5.90;;;5.03;;
19525;SDS011;9907;42.676;26.348;2024-01-30T05:04:08;7.03;;;5.30;;
19525;SDS011;9907;42.676;26.348;2024-01-30T05:06:34;5.80;;;5.13;;
19525;SDS011;9907;42.676;26.348;2024-01-30T05:08:59;6.27;;;4.60;;
19525;SDS011;9907;42.676;26.348;2024-01-30T05:11:25;4.90;;;4.43;;
19525;SDS011;9907;42.676;26.348;2024-01-30T05:13:50;4.93;;;4.43;;
19525;SDS011;9907;42.676;26.348;2024-01-30T05:16:16;6.03;;;5.00;;
19525;SDS011;9907;42.676;26.348;2024-01-30T05:18:41;5.47;;;4.53;;
19525;SDS011;9907;42.676;26.348;2024-01-30T05:21:06;7.60;;;4.33;;
19525;SDS011;9907;42.676;26.348;2024-01-30T05:23:32;5.57;;;4.20;;
19525;SDS011;9907;42.676;26.348;2024-01-30T05:25:57;5.73;;;5.13;;
19525;SDS011;9907;42.676;26.348;2024-01-30T05:28:25;5.93;;;4.60;;
19525;SDS011;9907;42.676;26.348;2024-01-30T05:30:51;5.17;;;4.50;;
19525;SDS011;9907;42.676;26.348;2024-01-30T05:33:17;5.17;;;4.67;;
19525;SDS011;9907;42.676;26.348;2024-01-30T05:35:42;7.67;;;5.40;;
19525;SDS011;9907;42.676;26.348;2024-01-30T05:38:07;6.47;;;4.73;;
19525;SDS011;9907;42.676;26.348;2024-01-30T05:40:33;6.53;;;5.07;;
19525;SDS011;9907;42.676;26.348;2024-01-30T05:42:58;7.20;;;5.40;;
19525;SDS011;9907;42.676;26.348;2024-01-30T05:45:26;7.30;;;5.57;;
19525;SDS011;9907;42.676;26.348;2024-01-30T05:47:52;7.43;;;5.33;;
19525;SDS011;9907;42.676;26.348;2024-01-30T05:50:18;6.07;;;4.80;;
19525;SDS011;9907;42.676;26.348;2024-01-30T05:52:44;5.50;;;4.90;;
19525;SDS011;9907;42.676;26.348;2024-01-30T05:58:35;6.83;;;5.43;;
19525;SDS011;9907;42.676;26.348;2024-01-30T06:01:02;6.07;;;5.00;;
19525;SDS011;9907;42.676;26.348;2024-01-30T06:03:31;5.70;;;4.80;;
19525;SDS011;9907;42.676;26.348;2024-01-30T06:05:57;6.70;;;4.73;;
19525;SDS011;9907;42.676;26.348;2024-01-30T06:11:51;7.30;;;5.17;;
19525;SDS011;9907;42.676;26.348;2024-01-30T06:14:16;5.60;;;4.73;;
19525;SDS011;9907;42.676;26.348;2024-01-30T06:23:25;6.60;;;5.50;;
19525;SDS011;9907;42.676;26.348;2024-01-30T06:25:51;6.53;;;4.83;;
19525;SDS011;9907;42.676;26.348;2024-01-30T06:28:16;4.67;;;4.27;;
19525;SDS011;9907;42.676;26.348;2024-01-30T06:30:42;13.57;;;5.90;;
19525;SDS011;9907;42.676;26.348;2024-01-30T06:33:08;5.63;;;5.03;;
19525;SDS011;9907;42.676;26.348;2024-01-30T06:35:37;8.70;;;6.47;;
19525;SDS011;9907;42.676;26.348;2024-01-30T06:38:05;6.60;;;5.90;;
19525;SDS011;9907;42.676;26.348;2024-01-30T06:40:30;4.90;;;4.40;;
19525;SDS011;9907;42.676;26.348;2024-01-30T06:42:56;6.37;;;4.53;;
19525;SDS011;9907;42.676;26.348;2024-01-30T06:45:21;6.10;;;5.50;;
19525;SDS011;9907;42.676;26.348;2024-01-30T06:47:47;8.60;;;5.43;;
19525;SDS011;9907;42.676;26.348;2024-01-30T06:50:12;5.80;;;5.30;;
19525;SDS011;9907;42.676;26.348;2024-01-30T06:52:38;7.33;;;5.43;;
19525;SDS011;9907;42.676;26.348;2024-01-30T06:55:03;6.97;;;5.57;;
19525;SDS011;9907;42.676;26.348;2024-01-30T06:57:29;7.60;;;6.27;;
19525;SDS011;9907;42.676;26.348;2024-01-30T06:59:55;6.03;;;4.90;;
19525;SDS011;9907;42.676;26.348;2024-01-30T07:02:21;4.73;;;3.73;;
19525;SDS011;9907;42.676;26.348;2024-01-30T07:04:47;4.47;;;3.70;;
19525;SDS011;9907;42.676;26.348;2024-01-30T07:07:12;6.23;;;4.30;;
19525;SDS011;9907;42.676;26.348;2024-01-30T07:09:39;4.40;;;4.00;;
19525;SDS011;9907;42.676;26.348;2024-01-30T07:12:06;6.33;;;4.50;;
19525;SDS011;9907;42.676;26.348;2024-01-30T07:14:33;6.63;;;5.07;;
19525;SDS011;9907;42.676;26.348;2024-01-30T07:16:58;5.10;;;4.60;;
19525;SDS011;9907;42.676;26.348;2024-01-30T07:19:24;5.13;;;4.33;;
19525;SDS011;9907;42.676;26.348;2024-01-30T07:21:49;4.20;;;3.80;;
19525;SDS011;9907;42.676;26.348;2024-01-30T07:24:15;5.83;;;4.53;;
19525;SDS011;9907;42.676;26.348;2024-01-30T07:26:40;5.13;;;4.00;;
19525;SDS011;9907;42.676;26.348;2024-01-30T07:29:06;4.50;;;3.80;;
19525;SDS011;9907;42.676;26.348;2024-01-30T07:31:36;4.97;;;4.00;;
19525;SDS011;9907;42.676;26.348;2024-01-30T07:34:03;5.63;;;4.30;;
19525;SDS011;9907;42.676;26.348;2024-01-30T07:36:28;5.03;;;4.57;;
19525;SDS011;9907;42.676;26.348;2024-01-30T07:38:54;6.57;;;4.53;;
19525;SDS011;9907;42.676;26.348;2024-01-30T07:41:20;5.37;;;4.60;;
19525;SDS011;9907;42.676;26.348;2024-01-30T07:43:45;6.57;;;4.43;;
19525;SDS011;9907;42.676;26.348;2024-01-30T07:46:10;6.60;;;4.77;;
19525;SDS011;9907;42.676;26.348;2024-01-30T07:48:36;6.37;;;5.03;;
19525;SDS011;9907;42.676;26.348;2024-01-30T07:51:01;7.90;;;5.00;;
19525;SDS011;9907;42.676;26.348;2024-01-30T07:53:29;7.40;;;4.67;;
19525;SDS011;9907;42.676;26.348;2024-01-30T07:55:54;6.20;;;4.80;;
19525;SDS011;9907;42.676;26.348;2024-01-30T07:58:19;4.83;;;4.13;;
19525;SDS011;9907;42.676;26.348;2024-01-30T08:00:45;6.23;;;5.00;;
19525;SDS011;9907;42.676;26.348;2024-01-30T08:03:10;7.23;;;5.03;;
19525;SDS011;9907;42.676;26.348;2024-01-30T08:05:36;4.30;;;3.90;;
19525;SDS011;9907;42.676;26.348;2024-01-30T08:08:01;4.80;;;3.73;;
19525;SDS011;9907;42.676;26.348;2024-01-30T08:10:27;6.77;;;4.80;;
19525;SDS011;9907;42.676;26.348;2024-01-30T08:12:53;7.90;;;5.60;;
19525;SDS011;9907;42.676;26.348;2024-01-30T08:15:18;6.53;;;4.47;;
19525;SDS011;9907;42.676;26.348;2024-01-30T08:17:45;5.43;;;4.53;;
19525;SDS011;9907;42.676;26.348;2024-01-30T08:20:10;4.50;;;4.07;;
19525;SDS011;9907;42.676;26.348;2024-01-30T08:22:40;3.80;;;3.50;;
19525;SDS011;9907;42.676;26.348;2024-01-30T08:25:06;6.27;;;3.60;;
19525;SDS011;9907;42.676;26.348;2024-01-30T08:27:32;6.83;;;3.60;;
19525;SDS011;9907;42.676;26.348;2024-01-30T08:30:05;4.10;;;3.43;;
19525;SDS011;9907;42.676;26.348;2024-01-30T08:32:55;4.30;;;3.87;;
19525;SDS011;9907;42.676;26.348;2024-01-30T08:35:21;4.57;;;3.30;;
19525;SDS011;9907;42.676;26.348;2024-01-30T08:37:46;4.23;;;3.60;;
19525;SDS011;9907;42.676;26.348;2024-01-30T08:40:12;3.60;;;3.10;;
19525;SDS011;9907;42.676;26.348;2024-01-30T08:42:37;3.57;;;3.27;;
19525;SDS011;9907;42.676;26.348;2024-01-30T08:45:04;6.43;;;4.03;;
19525;SDS011;9907;42.676;26.348;2024-01-30T08:53:42;3.53;;;3.17;;
19525;SDS011;9907;42.676;26.348;2024-01-30T08:56:08;4.60;;;3.80;;
19525;SDS011;9907;42.676;26.348;2024-01-30T08:58:33;4.10;;;3.47;;
19525;SDS011;9907;42.676;26.348;2024-01-30T09:00:58;3.53;;;2.73;;
19525;SDS011;9907;42.676;26.348;2024-01-30T09:07:25;5.43;;;3.27;;
19525;SDS011;9907;42.676;26.348;2024-01-30T09:09:51;4.27;;;2.40;;
19525;SDS011;9907;42.676;26.348;2024-01-30T09:12:17;3.23;;;2.93;;
19525;SDS011;9907;42.676;26.348;2024-01-30T09:17:38;11.17;;;7.73;;
19525;SDS011;9907;42.676;26.348;2024-01-30T09:20:31;6.57;;;3.80;;
19525;SDS011;9907;42.676;26.348;2024-01-30T09:26:06;5.73;;;3.73;;
19525;SDS011;9907;42.676;26.348;2024-01-30T09:28:39;4.97;;;4.07;;
19525;SDS011;9907;42.676;26.348;2024-01-30T09:31:11;5.83;;;4.70;;
19525;SDS011;9907;42.676;26.348;2024-01-30T09:33:37;5.53;;;4.53;;
19525;SDS011;9907;42.676;26.348;2024-01-30T09:36:04;5.53;;;4.53;;
19525;SDS011;9907;42.676;26.348;2024-01-30T09:38:30;5.93;;;4.70;;
19525;SDS011;9907;42.676;26.348;2024-01-30T09:40:57;4.80;;;3.97;;
19525;SDS011;9907;42.676;26.348;2024-01-30T09:43:28;6.57;;;4.67;;
19525;SDS011;9907;42.676;26.348;2024-01-30T09:48:41;6.47;;;5.47;;
19525;SDS011;9907;42.676;26.348;2024-01-30T09:51:08;5.70;;;5.10;;
19525;SDS011;9907;42.676;26.348;2024-01-30T09:53:34;7.63;;;4.97;;
19525;SDS011;9907;42.676;26.348;2024-01-30T09:56:00;5.17;;;3.80;;
19525;SDS011;9907;42.676;26.348;2024-01-30T09:58:30;4.30;;;3.90;;
19525;SDS011;9907;42.676;26.348;2024-01-30T10:00:55;7.53;;;3.63;;
19525;SDS011;9907;42.676;26.348;2024-01-30T10:03:22;5.57;;;3.80;;
19525;SDS011;9907;42.676;26.348;2024-01-30T10:12:12;10.13;;;6.63;;
19525;SDS011;9907;42.676;26.348;2024-01-30T10:17:24;9.07;;;5.77;;
19525;SDS011;9907;42.676;26.348;2024-01-30T10:19:51;5.83;;;5.17;;
19525;SDS011;9907;42.676;26.348;2024-01-30T10:22:19;5.43;;;4.47;;
19525;SDS011;9907;42.676;26.348;2024-01-30T10:24:45;4.70;;;3.87;;
19525;SDS011;9907;42.676;26.348;2024-01-30T10:27:11;4.20;;;3.57;;
19525;SDS011;9907;42.676;26.348;2024-01-30T10:29:37;4.13;;;3.43;;
19525;SDS011;9907;42.676;26.348;2024-01-30T10:32:04;3.37;;;3.07;;
19525;SDS011;9907;42.676;26.348;2024-01-30T10:34:31;4.00;;;3.60;;
19525;SDS011;9907;42.676;26.348;2024-01-30T10:37:10;3.50;;;3.20;;
19525;SDS011;9907;42.676;26.348;2024-01-30T10:39:42;4.57;;;3.70;;
19525;SDS011;9907;42.676;26.348;2024-01-30T10:42:12;4.40;;;3.57;;
19525;SDS011;9907;42.676;26.348;2024-01-30T10:44:59;3.97;;;3.40;;
19525;SDS011;9907;42.676;26.348;2024-01-30T10:47:43;4.73;;;3.10;;
19525;SDS011;9907;42.676;26.348;2024-01-30T10:50:14;4.13;;;3.50;;
19525;SDS011;9907;42.676;26.348;2024-01-30T10:52:40;4.07;;;3.67;;
19525;SDS011;9907;42.676;26.348;2024-01-30T10:55:07;6.47;;;3.67;;
19525;SDS011;9907;42.676;26.348;2024-01-30T10:57:36;4.77;;;3.80;;
19525;SDS011;9907;42.676;26.348;2024-01-30T11:00:04;4.27;;;3.47;;
19525;SDS011;9907;42.676;26.348;2024-01-30T11:02:35;4.17;;;3.57;;
19525;SDS011;9907;42.676;26.348;2024-01-30T11:05:05;5.77;;;3.30;;
19525;SDS011;9907;42.676;26.348;2024-01-30T11:07:31;3.90;;;2.83;;
19525;SDS011;9907;42.676;26.348;2024-01-30T11:12:23;5.47;;;3.10;;
19525;SDS011;9907;42.676;26.348;2024-01-30T11:14:50;4.03;;;3.00;;
19525;SDS011;9907;42.676;26.348;2024-01-30T11:17:28;4.00;;;3.07;;
19525;SDS011;9907;42.676;26.348;2024-01-30T11:19:53;4.63;;;3.00;;
19525;SDS011;9907;42.676;26.348;2024-01-30T11:22:20;3.50;;;3.10;;
19525;SDS011;9907;42.676;26.348;2024-01-30T11:24:46;3.40;;;2.90;;
19525;SDS011;9907;42.676;26.348;2024-01-30T11:27:12;3.60;;;3.30;;
19525;SDS011;9907;42.676;26.348;2024-01-30T11:29:40;4.00;;;2.90;;
19525;SDS011;9907;42.676;26.348;2024-01-30T11:32:05;4.10;;;3.33;;
19525;SDS011;9907;42.676;26.348;2024-01-30T11:34:32;2.40;;;2.20;;
19525;SDS011;9907;42.676;26.348;2024-01-30T11:36:59;3.50;;;3.00;;
19525;SDS011;9907;42.676;26.348;2024-01-30T11:39:31;3.30;;;3.00;;
19525;SDS011;9907;42.676;26.348;2024-01-30T11:41:57;3.50;;;3.07;;
19525;SDS011;9907;42.676;26.348;2024-01-30T11:44:24;3.40;;;3.10;;
19525;SDS011;9907;42.676;26.348;2024-01-30T11:46:51;3.60;;;2.73;;
19525;SDS011;9907;42.676;26.348;2024-01-30T11:49:17;3.83;;;3.40;;
19525;SDS011;9907;42.676;26.348;2024-01-30T11:51:45;5.57;;;3.13;;
19525;SDS011;9907;42.676;26.348;2024-01-30T11:54:10;2.87;;;2.50;;
19525;SDS011;9907;42.676;26.348;2024-01-30T11:56:37;2.80;;;2.60;;
19525;SDS011;9907;42.676;26.348;2024-01-30T11:59:03;4.27;;;2.90;;
19525;SDS011;9907;42.676;26.348;2024-01-30T12:01:29;6.23;;;3.40;;
19525;SDS011;9907;42.676;26.348;2024-01-30T12:04:00;5.40;;;3.90;;
19525;SDS011;9907;42.676;26.348;2024-01-30T12:06:26;4.47;;;3.53;;
19525;SDS011;9907;42.676;26.348;2024-01-30T12:08:58;4.83;;;3.50;;
19525;SDS011;9907;42.676;26.348;2024-01-30T12:11:25;5.70;;;4.03;;
19525;SDS011;9907;42.676;26.348;2024-01-30T12:13:52;4.23;;;3.30;;
19525;SDS011;9907;42.676;26.348;2024-01-30T12:16:18;6.73;;;4.33;;
19525;SDS011;9907;42.676;26.348;2024-01-30T12:18:43;5.07;;;4.30;;
19525;SDS011;9907;42.676;26.348;2024-01-30T12:21:09;5.73;;;3.90;;
19525;SDS011;9907;42.676;26.348;2024-01-30T12:23:35;5.20;;;3.73;;
19525;SDS011;9907;42.676;26.348;2024-01-30T12:26:00;5.20;;;3.00;;
19525;SDS011;9907;42.676;26.348;2024-01-30T12:28:28;2.90;;;2.70;;
19525;SDS011;9907;42.676;26.348;2024-01-30T12:31:01;3.20;;;2.87;;
19525;SDS011;9907;42.676;26.348;2024-01-30T12:33:31;3.50;;;3.10;;
19525;SDS011;9907;42.676;26.348;2024-01-30T12:35:57;5.10;;;3.50;;
19525;SDS011;9907;42.676;26.348;2024-01-30T12:38:23;6.33;;;4.30;;
19525;SDS011;9907;42.676;26.348;2024-01-30T12:40:50;3.93;;;3.40;;
19525;SDS011;9907;42.676;26.348;2024-01-30T12:43:20;3.90;;;3.50;;
19525;SDS011;9907;42.676;26.348;2024-01-30T12:45:46;4.60;;;3.90;;
19525;SDS011;9907;42.676;26.348;2024-01-30T12:48:12;5.00;;;3.90;;
19525;SDS011;9907;42.676;26.348;2024-01-30T12:50:40;3.70;;;3.33;;
19525;SDS011;9907;42.676;26.348;2024-01-30T12:53:06;3.93;;;3.30;;
19525;SDS011;9907;42.676;26.348;2024-01-30T12:55:32;11.07;;;4.97;;
19525;SDS011;9907;42.676;26.348;2024-01-30T12:57:57;5.70;;;4.40;;
19525;SDS011;9907;42.676;26.348;2024-01-30T13:00:23;3.93;;;3.43;;
19525;SDS011;9907;42.676;26.348;2024-01-30T13:02:48;5.73;;;4.77;;
19525;SDS011;9907;42.676;26.348;2024-01-30T13:05:14;5.27;;;3.77;;
19525;SDS011;9907;42.676;26.348;2024-01-30T13:07:39;3.73;;;3.33;;
19525;SDS011;9907;42.676;26.348;2024-01-30T13:10:05;3.97;;;3.17;;
19525;SDS011;9907;42.676;26.348;2024-01-30T13:12:31;4.03;;;3.60;;
19525;SDS011;9907;42.676;26.348;2024-01-30T13:15:00;4.70;;;3.40;;
19525;SDS011;9907;42.676;26.348;2024-01-30T13:17:26;6.50;;;5.23;;
19525;SDS011;9907;42.676;26.348;2024-01-30T13:19:52;6.57;;;4.93;;
19525;SDS011;9907;42.676;26.348;2024-01-30T13:22:19;5.57;;;3.93;;
19525;SDS011;9907;42.676;26.348;2024-01-30T13:24:46;4.43;;;3.30;;
19525;SDS011;9907;42.676;26.348;2024-01-30T13:27:12;7.40;;;5.47;;
19525;SDS011;9907;42.676;26.348;2024-01-30T13:29:37;5.93;;;3.57;;
19525;SDS011;9907;42.676;26.348;2024-01-30T13:32:03;5.07;;;3.90;;
19525;SDS011;9907;42.676;26.348;2024-01-30T13:34:29;4.77;;;4.27;;
19525;SDS011;9907;42.676;26.348;2024-01-30T13:36:54;5.90;;;4.47;;
19525;SDS011;9907;42.676;26.348;2024-01-30T13:39:23;4.60;;;4.20;;
19525;SDS011;9907;42.676;26.348;2024-01-30T13:41:48;5.10;;;4.13;;
19525;SDS011;9907;42.676;26.348;2024-01-30T13:44:15;5.03;;;3.90;;
19525;SDS011;9907;42.676;26.348;2024-01-30T13:46:41;4.73;;;3.70;;
19525;SDS011;9907;42.676;26.348;2024-01-30T13:49:07;3.97;;;3.43;;
19525;SDS011;9907;42.676;26.348;2024-01-30T13:51:36;4.10;;;3.60;;
19525;SDS011;9907;42.676;26.348;2024-01-30T13:54:01;8.83;;;4.67;;
19525;SDS011;9907;42.676;26.348;2024-01-30T13:56:26;4.43;;;4.03;;
19525;SDS011;9907;42.676;26.348;2024-01-30T13:58:52;5.07;;;4.37;;
19525;SDS011;9907;42.676;26.348;2024-01-30T14:01:18;61.90;;;15.87;;
19525;SDS011;9907;42.676;26.348;2024-01-30T14:03:44;6.87;;;5.73;;
19525;SDS011;9907;42.676;26.348;2024-01-30T14:06:10;8.83;;;4.77;;
19525;SDS011;9907;42.676;26.348;2024-01-30T14:08:36;8.63;;;5.40;;
19525;SDS011;9907;42.676;26.348;2024-01-30T14:11:02;5.17;;;4.67;;
19525;SDS011;9907;42.676;26.348;2024-01-30T14:13:29;7.63;;;6.00;;
19525;SDS011;9907;42.676;26.348;2024-01-30T14:15:58;7.50;;;5.90;;
19525;SDS011;9907;42.676;26.348;2024-01-30T14:18:24;12.17;;;6.17;;
19525;SDS011;9907;42.676;26.348;2024-01-30T14:20:50;5.83;;;4.37;;
19525;SDS011;9907;42.676;26.348;2024-01-30T14:23:17;5.70;;;3.77;;
19525;SDS011;9907;42.676;26.348;2024-01-30T14:25:42;5.63;;;4.37;;
19525;SDS011;9907;42.676;26.348;2024-01-30T14:28:08;5.50;;;4.83;;
19525;SDS011;9907;42.676;26.348;2024-01-30T14:30:33;4.43;;;3.80;;
19525;SDS011;9907;42.676;26.348;2024-01-30T14:32:59;5.60;;;4.47;;
19525;SDS011;9907;42.676;26.348;2024-01-30T14:35:24;10.03;;;5.97;;
19525;SDS011;9907;42.676;26.348;2024-01-30T14:37:50;6.90;;;5.60;;
19525;SDS011;9907;42.676;26.348;2024-01-30T14:40:15;4.30;;;3.50;;
19525;SDS011;9907;42.676;26.348;2024-01-30T14:42:42;3.90;;;3.53;;
19525;SDS011;9907;42.676;26.348;2024-01-30T14:45:08;4.47;;;3.80;;
19525;SDS011;9907;42.676;26.348;2024-01-30T14:47:34;4.07;;;2.87;;
19525;SDS011;9907;42.676;26.348;2024-01-30T14:50:04;4.80;;;3.37;;
19525;SDS011;9907;42.676;26.348;2024-01-30T14:52:31;2.97;;;2.67;;
19525;SDS011;9907;42.676;26.348;2024-01-30T14:54:57;5.47;;;3.83;;
19525;SDS011;9907;42.676;26.348;2024-01-30T14:57:23;5.97;;;4.43;;
19525;SDS011;9907;42.676;26.348;2024-01-30T14:59:49;5.13;;;4.13;;
19525;SDS011;9907;42.676;26.348;2024-01-30T15:02:14;5.90;;;5.17;;
19525;SDS011;9907;42.676;26.348;2024-01-30T15:04:40;9.90;;;7.57;;
19525;SDS011;9907;42.676;26.348;2024-01-30T15:07:06;16.67;;;11.17;;
19525;SDS011;9907;42.676;26.348;2024-01-30T15:09:31;17.67;;;13.93;;
19525;SDS011;9907;42.676;26.348;2024-01-30T15:11:57;13.77;;;11.33;;
19525;SDS011;9907;42.676;26.348;2024-01-30T15:14:23;10.53;;;8.83;;
19525;SDS011;9907;42.676;26.348;2024-01-30T15:16:49;6.63;;;4.43;;
19525;SDS011;9907;42.676;26.348;2024-01-30T15:19:16;7.37;;;6.33;;
19525;SDS011;9907;42.676;26.348;2024-01-30T15:21:44;7.53;;;4.93;;
19525;SDS011;9907;42.676;26.348;2024-01-30T15:24:10;49.70;;;21.40;;
19525;SDS011;9907;42.676;26.348;2024-01-30T15:26:39;30.63;;;14.97;;
19525;SDS011;9907;42.676;26.348;2024-01-30T15:29:05;10.30;;;6.83;;